createdAt,value
2018-07-15T00:00:25.625Z,4.20
2018-07-15T00:05:28.761Z,7.57
2018-07-15T00:10:41.261Z,4.73
2018-07-15T00:15:44.765Z,4.83
2018-07-15T00:20:47.902Z,4.20
2018-07-15T00:25:51.034Z,4.63
2018-07-15T00:30:54.206Z,5.20
2018-07-15T00:35:57.330Z,5.10
2018-07-15T00:41:00.477Z,5.13
2018-07-15T00:46:03.619Z,10.37
2018-07-15T00:51:06.749Z,4.80
2018-07-15T00:56:09.918Z,5.60
2018-07-15T01:01:13.097Z,6.90
2018-07-15T01:06:16.198Z,5.93
2018-07-15T01:11:19.378Z,7.73
2018-07-15T01:16:22.498Z,6.77
2018-07-15T01:21:25.645Z,7.37
2018-07-15T01:26:29.210Z,8.83
2018-07-15T01:31:32.354Z,6.90
2018-07-15T01:36:35.485Z,8.10
2018-07-15T01:41:38.649Z,10.23
2018-07-15T01:46:41.786Z,10.13
2018-07-15T01:51:44.952Z,9.77
2018-07-15T01:56:48.110Z,12.80
2018-07-15T02:01:51.248Z,15.27
2018-07-15T02:06:54.432Z,11.33
2018-07-15T02:11:57.550Z,11.63
2018-07-15T02:17:00.663Z,11.17
2018-07-15T02:22:03.789Z,10.83
2018-07-15T02:27:06.994Z,9.40
2018-07-15T02:32:10.126Z,10.13
2018-07-15T02:37:13.284Z,10.10
2018-07-15T02:42:16.424Z,12.83
2018-07-15T02:47:19.650Z,10.00
2018-07-15T02:52:22.794Z,10.70
2018-07-15T02:57:25.938Z,9.03
2018-07-15T03:02:29.189Z,11.40
2018-07-15T03:07:32.387Z,8.77
2018-07-15T03:12:35.514Z,10.07
2018-07-15T03:17:38.703Z,9.47
2018-07-15T03:22:41.858Z,9.87
2018-07-15T03:27:44.966Z,9.33
2018-07-15T03:32:48.269Z,9.17
2018-07-15T03:37:51.455Z,8.43
2018-07-15T03:42:54.586Z,9.77
2018-07-15T03:47:57.842Z,9.17
2018-07-15T03:53:00.989Z,9.43
2018-07-15T03:58:04.094Z,8.53
2018-07-15T04:03:07.470Z,8.83
2018-07-15T04:08:10.638Z,8.30
2018-07-15T04:13:13.772Z,9.10
2018-07-15T04:18:16.913Z,8.80
2018-07-15T04:23:20.039Z,8.23
2018-07-15T04:28:23.193Z,9.40
2018-07-15T04:33:26.335Z,11.37
2018-07-15T04:38:29.457Z,8.80
2018-07-15T04:43:32.596Z,8.87
2018-07-15T04:48:35.738Z,9.73
2018-07-15T04:53:38.867Z,9.87
2018-07-15T04:58:42.017Z,9.53
2018-07-15T05:03:45.135Z,9.80
2018-07-15T05:08:48.282Z,11.97
2018-07-15T05:13:51.414Z,11.73
2018-07-15T05:18:54.594Z,11.33
2018-07-15T05:23:57.750Z,11.50
2018-07-15T05:29:00.912Z,12.83
2018-07-15T05:34:04.147Z,12.30
2018-07-15T05:39:07.311Z,12.63
2018-07-15T05:44:10.439Z,13.13
2018-07-15T05:49:13.583Z,13.83
2018-07-15T05:54:16.749Z,15.80
2018-07-15T05:59:19.907Z,16.10
2018-07-15T06:04:23.070Z,16.00
2018-07-15T06:09:26.302Z,15.60
2018-07-15T06:14:30.027Z,21.80
2018-07-15T06:19:33.258Z,17.30
2018-07-15T06:24:36.449Z,14.47
2018-07-15T06:29:39.617Z,14.33
2018-07-15T06:34:42.762Z,15.13
2018-07-15T06:39:45.915Z,14.03
2018-07-15T06:44:49.054Z,19.07
2018-07-15T06:49:52.430Z,15.53
2018-07-15T06:54:55.587Z,17.57
2018-07-15T06:59:58.721Z,15.87
2018-07-15T07:05:02.154Z,14.73
2018-07-15T07:10:06.326Z,13.33
2018-07-15T07:15:09.582Z,14.10
2018-07-15T07:20:13.197Z,12.57
2018-07-15T07:25:17.055Z,13.20
2018-07-15T07:30:20.666Z,13.60
2018-07-15T07:35:24.224Z,10.47
2018-07-15T07:40:27.347Z,10.27
2018-07-15T07:45:30.626Z,9.53
2018-07-15T07:50:33.775Z,9.00
2018-07-15T07:55:36.994Z,7.40
2018-07-15T08:00:40.430Z,7.57
2018-07-15T08:05:43.603Z,8.43
2018-07-15T08:10:46.805Z,6.83
2018-07-15T08:15:50.016Z,5.37
2018-07-15T08:20:53.282Z,5.70
2018-07-15T08:25:56.753Z,4.47
2018-07-15T08:31:08.849Z,3.83
2018-07-15T08:36:12.494Z,6.20
2018-07-15T08:41:15.718Z,6.13
2018-07-15T08:46:18.884Z,4.60
2018-07-15T08:51:22.042Z,4.73
2018-07-15T08:56:25.233Z,6.10
2018-07-15T09:01:29.266Z,6.90
2018-07-15T09:06:32.479Z,3.13
2018-07-15T09:11:35.689Z,4.27
2018-07-15T09:16:38.890Z,3.70
2018-07-15T09:21:42.051Z,3.63
2018-07-15T09:26:45.216Z,3.60
2018-07-15T09:31:48.410Z,2.87
2018-07-15T09:36:51.626Z,3.27
2018-07-15T09:41:54.785Z,2.83
2018-07-15T09:46:58.210Z,2.60
2018-07-15T09:52:01.525Z,2.30
2018-07-15T09:57:06.969Z,4.63
2018-07-15T10:02:10.212Z,2.17
2018-07-15T10:07:14.213Z,2.80
2018-07-15T10:12:19.225Z,3.63
2018-07-15T10:17:23.533Z,2.07
2018-07-15T10:22:26.745Z,3.57
2018-07-15T10:27:30.182Z,2.90
2018-07-15T10:32:33.539Z,2.50
2018-07-15T10:37:38.531Z,1.73
2018-07-15T10:42:41.764Z,1.40
2018-07-15T10:47:44.947Z,2.40
2018-07-15T10:52:51.696Z,1.47
2018-07-15T10:57:57.532Z,3.67
2018-07-15T11:03:00.767Z,1.73
2018-07-15T11:08:05.221Z,1.50
2018-07-15T11:13:08.390Z,1.57
2018-07-15T11:18:12.488Z,1.37
2018-07-15T11:23:15.603Z,2.20
2018-07-15T11:28:18.850Z,2.33
2018-07-15T11:33:22.011Z,1.83
2018-07-15T11:38:25.214Z,0.83
2018-07-15T11:43:28.374Z,1.90
2018-07-15T11:48:31.781Z,1.33
2018-07-15T11:53:35.029Z,0.57
2018-07-15T11:58:38.219Z,1.83
2018-07-15T12:03:41.398Z,1.43
2018-07-15T12:08:44.646Z,0.93
2018-07-15T12:13:47.810Z,1.67
2018-07-15T12:18:51.052Z,3.57
2018-07-15T12:23:54.190Z,0.37
2018-07-15T12:28:57.362Z,1.17
2018-07-15T12:34:00.549Z,0.80
2018-07-15T12:39:04.716Z,0.43
2018-07-15T12:44:07.910Z,3.40
2018-07-15T12:49:11.122Z,2.27
2018-07-15T12:54:14.294Z,1.05
2018-07-15T12:59:17.556Z,2.23
2018-07-15T13:04:20.751Z,0.77
2018-07-15T13:09:23.974Z,0.60
2018-07-15T13:14:27.137Z,1.83
2018-07-15T13:19:30.285Z,2.33
2018-07-15T13:24:33.513Z,1.23
2018-07-15T13:29:36.705Z,0.47
2018-07-15T13:34:39.795Z,0.43
2018-07-15T13:39:44.094Z,0.60
2018-07-15T13:44:47.350Z,0.80
2018-07-15T13:49:52.503Z,0.30
2018-07-15T13:54:55.650Z,0.47
2018-07-15T13:59:59.047Z,0.40
2018-07-15T14:05:02.259Z,0.30
2018-07-15T14:10:05.438Z,0.77
2018-07-15T14:15:08.659Z,8.20
2018-07-15T14:20:11.873Z,0.40
2018-07-15T14:25:15.010Z,0.20
2018-07-15T14:30:18.176Z,0.20
2018-07-15T14:35:23.364Z,0.27
2018-07-15T14:40:26.520Z,1.03
2018-07-15T14:45:29.647Z,1.10
2018-07-15T14:50:33.091Z,1.73
2018-07-15T14:55:38.082Z,0.63
2018-07-15T15:00:42.877Z,0.30
2018-07-15T15:05:46.074Z,0.20
2018-07-15T15:10:49.216Z,0.90
2018-07-15T15:15:52.382Z,0.33
2018-07-15T15:20:56.631Z,2.40
2018-07-15T15:25:59.876Z,1.13
2018-07-15T15:31:03.062Z,0.37
2018-07-15T15:36:06.387Z,0.30
2018-07-15T15:41:09.633Z,0.10
2018-07-15T15:46:12.831Z,0.20
2018-07-15T15:51:16.574Z,1.03
2018-07-15T15:56:20.110Z,0.20
2018-07-15T16:01:23.223Z,0.70
2018-07-15T16:06:26.374Z,0.85
2018-07-15T16:11:29.531Z,0.50
2018-07-15T16:16:32.715Z,1.03
2018-07-15T16:21:36.470Z,2.53
2018-07-15T16:26:40.070Z,2.07
2018-07-15T16:31:43.202Z,0.43
2018-07-15T16:36:46.330Z,0.27
2018-07-15T16:41:49.474Z,0.57
2018-07-15T16:46:52.622Z,1.37
2018-07-15T16:51:55.798Z,0.37
2018-07-15T16:56:58.914Z,2.67
2018-07-15T17:02:02.067Z,0.23
2018-07-15T17:07:05.562Z,0.63
2018-07-15T17:12:09.355Z,1.60
2018-07-15T17:17:13.511Z,0.20
2018-07-15T17:22:16.658Z,2.20
2018-07-15T17:27:19.809Z,3.10
2018-07-15T17:32:22.958Z,0.30
2018-07-15T17:37:27.363Z,1.33
2018-07-15T17:42:30.575Z,0.20
2018-07-15T17:47:34.502Z,0.40
2018-07-15T17:52:37.850Z,0.27
2018-07-15T17:57:40.986Z,2.07
2018-07-15T18:02:43.880Z,0.20
2018-07-15T18:07:47.035Z,0.47
2018-07-15T18:12:50.278Z,0.33
2018-07-15T18:17:53.427Z,0.50
2018-07-15T18:22:56.593Z,0.50
2018-07-15T18:28:00.973Z,1.37
2018-07-15T18:33:04.189Z,0.73
2018-07-15T18:38:07.317Z,3.73
2018-07-15T18:43:10.575Z,1.40
2018-07-15T18:48:13.725Z,2.67
2018-07-15T18:53:16.957Z,2.37
2018-07-15T18:58:20.158Z,1.93
2018-07-15T19:03:26.442Z,1.33
2018-07-15T19:08:29.702Z,0.40
2018-07-15T19:13:32.829Z,1.00
2018-07-15T19:18:36.154Z,1.07
2018-07-15T19:23:39.269Z,0.80
2018-07-15T19:28:42.496Z,0.70
2018-07-15T19:33:45.810Z,4.07
2018-07-15T19:38:49.958Z,2.00
2018-07-15T19:43:53.898Z,1.73
2018-07-15T19:48:57.114Z,1.97
2018-07-15T19:54:00.274Z,0.97
2018-07-15T19:59:08.495Z,0.50
2018-07-15T20:04:11.702Z,2.03
2018-07-15T20:09:15.065Z,1.37
2018-07-15T20:14:18.210Z,2.47
2018-07-15T20:19:21.328Z,2.23
2018-07-15T20:24:24.460Z,3.13
2018-07-15T20:29:27.698Z,4.27
2018-07-15T20:34:31.469Z,2.07
2018-07-15T20:39:34.754Z,1.13
2018-07-15T20:44:37.867Z,2.23
2018-07-15T20:49:40.991Z,4.03
2018-07-15T20:54:44.141Z,5.27
2018-07-15T20:59:47.270Z,3.87
2018-07-15T21:04:50.390Z,3.10
2018-07-15T21:09:54.305Z,2.30
2018-07-15T21:14:57.458Z,2.50
2018-07-15T21:20:00.582Z,1.57
2018-07-15T21:25:03.738Z,3.17
2018-07-15T21:30:06.882Z,2.03
2018-07-15T21:35:10.110Z,2.13
2018-07-15T21:40:13.243Z,1.00
2018-07-15T21:45:16.406Z,1.63
2018-07-15T21:50:19.509Z,2.63
2018-07-15T21:55:22.794Z,1.50
2018-07-15T22:00:25.946Z,1.63
2018-07-15T22:05:29.099Z,1.27
2018-07-15T22:10:43.964Z,2.03
2018-07-15T22:15:46.994Z,2.07
2018-07-15T22:20:50.106Z,3.23
2018-07-15T22:25:53.308Z,3.67
2018-07-15T22:30:57.166Z,3.50
2018-07-15T22:36:00.333Z,4.87
2018-07-15T22:41:03.524Z,4.33
2018-07-15T22:46:06.842Z,3.10
2018-07-15T22:51:09.990Z,2.73
2018-07-15T22:56:13.131Z,3.40
2018-07-15T23:01:16.290Z,2.83
2018-07-15T23:06:20.398Z,3.67
2018-07-15T23:11:23.591Z,2.73
2018-07-15T23:16:26.727Z,2.03
2018-07-15T23:21:29.878Z,2.10
2018-07-15T23:26:33.022Z,1.90
2018-07-15T23:31:37.143Z,3.63
2018-07-15T23:36:40.316Z,2.30
2018-07-15T23:41:43.482Z,2.40
2018-07-15T23:46:46.616Z,6.23
2018-07-15T23:51:49.770Z,3.10
2018-07-15T23:56:52.897Z,4.50
